createdAt,value
2022-10-15T00:01:04.420Z,28.2
2022-10-15T00:03:08.228Z,29.4
2022-10-15T00:05:12.165Z,25.5
2022-10-15T00:07:16.052Z,26.8
2022-10-15T00:09:22.768Z,27.6
2022-10-15T00:11:26.681Z,27.6
2022-10-15T00:13:30.558Z,29.5
2022-10-15T00:14:33.931Z,29.7
2022-10-15T00:16:37.833Z,31.3
2022-10-15T00:18:41.715Z,27.1
2022-10-15T00:20:45.627Z,27.8
2022-10-15T00:22:52.340Z,32
2022-10-15T00:24:56.255Z,33.3
2022-10-15T00:27:00.154Z,52.1
2022-10-15T00:29:04.106Z,33.5
2022-10-15T00:31:07.948Z,29.6
2022-10-15T00:33:11.858Z,26.4
2022-10-15T00:35:15.760Z,27.6
2022-10-15T00:37:22.683Z,29.3
2022-10-15T00:39:26.555Z,23.3
2022-10-15T00:41:30.517Z,25.8
2022-10-15T00:43:34.336Z,28
2022-10-15T00:45:38.222Z,26.1
2022-10-15T00:47:42.143Z,25.1
2022-10-15T00:49:46.041Z,26.9
2022-10-15T00:51:52.842Z,26.4
2022-10-15T00:53:56.745Z,26.2
2022-10-15T00:56:01.621Z,26.9
2022-10-15T00:58:05.566Z,28.4
2022-10-15T01:00:09.399Z,29.6
2022-10-15T01:02:13.308Z,25.2
2022-10-15T01:04:17.194Z,26.8
2022-10-15T01:06:23.910Z,29.7
2022-10-15T01:08:27.915Z,30.1
2022-10-15T01:10:31.816Z,31.3
2022-10-15T01:11:35.155Z,31.3
2022-10-15T01:13:39.046Z,29.7
2022-10-15T01:15:42.969Z,26.6
2022-10-15T01:17:46.862Z,29.6
2022-10-15T01:19:53.569Z,32.3
2022-10-15T01:21:57.473Z,27.8
2022-10-15T01:24:01.360Z,28.3
2022-10-15T01:26:05.253Z,33.8
2022-10-15T01:28:09.146Z,31.7
2022-10-15T01:30:13.081Z,31.6
2022-10-15T01:32:16.946Z,30.2
2022-10-15T01:34:23.660Z,36.3
2022-10-15T01:36:27.556Z,31.1
2022-10-15T01:38:31.448Z,34.2
2022-10-15T01:40:35.486Z,33.5
2022-10-15T01:42:39.254Z,32.5
2022-10-15T01:44:43.167Z,32
2022-10-15T01:48:53.904Z,34
2022-10-15T01:53:01.794Z,33.3
2022-10-15T01:57:09.605Z,35.7
2022-10-15T01:59:13.490Z,34.8
2022-10-15T02:01:17.462Z,33.6
2022-10-15T02:03:25.619Z,37.4
2022-10-15T02:07:33.424Z,31.8
2022-10-15T02:09:57.345Z,38.6
2022-10-15T02:12:01.469Z,32.5
2022-10-15T02:16:12.054Z,38.2
2022-10-15T02:18:15.964Z,34.4
2022-10-15T02:20:19.865Z,35.5
2022-10-15T02:22:24.135Z,37.5
2022-10-15T02:24:27.660Z,29.7
2022-10-15T02:26:31.557Z,33.1
2022-10-15T02:28:35.523Z,35.7
2022-10-15T02:30:42.178Z,36.6
2022-10-15T02:32:46.083Z,37.4
2022-10-15T02:34:50.018Z,33.7
2022-10-15T02:36:53.912Z,30.9
2022-10-15T02:38:57.840Z,36
2022-10-15T02:41:01.851Z,37.7
2022-10-15T02:43:05.722Z,36.5
2022-10-15T02:45:12.449Z,38.1
2022-10-15T02:47:16.384Z,35.7
2022-10-15T02:49:20.266Z,35.3
2022-10-15T02:51:24.256Z,34.5
2022-10-15T02:53:28.138Z,36.5
2022-10-15T02:55:32.041Z,37.3
2022-10-15T02:57:35.944Z,35.2
2022-10-15T02:59:42.745Z,36.8
2022-10-15T03:01:46.655Z,38.2
2022-10-15T03:03:50.548Z,35.9
2022-10-15T03:04:53.898Z,37.2
2022-10-15T03:09:01.714Z,34.7
2022-10-15T03:11:05.586Z,35.9
2022-10-15T03:13:12.298Z,38.3
2022-10-15T03:19:23.994Z,34.8
2022-10-15T03:25:35.808Z,34.9
2022-10-15T03:27:42.531Z,39.8
2022-10-15T03:29:46.436Z,37.1
2022-10-15T03:31:50.331Z,36.3
2022-10-15T03:33:54.249Z,35
2022-10-15T03:38:02.037Z,32.7
2022-10-15T03:44:16.579Z,35.9
2022-10-15T03:46:20.507Z,34
2022-10-15T03:48:24.391Z,30.5
2022-10-15T03:50:28.294Z,36.7
2022-10-15T03:58:46.723Z,37.8
2022-10-15T04:01:53.845Z,39.3
2022-10-15T04:03:57.752Z,38.4
2022-10-15T04:06:03.432Z,34.1
2022-10-15T04:08:05.535Z,35.9
2022-10-15T04:10:12.284Z,39.6
2022-10-15T04:12:16.293Z,34.1
2022-10-15T04:14:20.190Z,35.1
2022-10-15T04:16:24.093Z,37
2022-10-15T04:18:28.035Z,31.7
2022-10-15T04:20:32.059Z,33.3
2022-10-15T04:22:35.926Z,37
2022-10-15T04:24:42.655Z,41.6
2022-10-15T04:26:46.570Z,37.2
2022-10-15T04:28:50.586Z,36.7
2022-10-15T04:30:54.353Z,35.8
2022-10-15T04:32:58.275Z,37.1
2022-10-15T04:35:02.185Z,36
2022-10-15T04:37:06.180Z,37.1
2022-10-15T04:39:14.562Z,36.9
2022-10-15T04:41:16.815Z,34.3
2022-10-15T04:43:20.672Z,36.4
2022-10-15T04:47:28.487Z,34.6
2022-10-15T04:49:32.366Z,35.9
2022-10-15T04:51:36.271Z,34.7
2022-10-15T04:53:42.983Z,36.9
2022-10-15T04:57:50.783Z,36.7
2022-10-15T04:58:54.120Z,35.4
2022-10-15T05:00:58.018Z,35
2022-10-15T05:03:01.916Z,32.8
2022-10-15T05:05:05.800Z,38
2022-10-15T05:07:12.519Z,39.3
2022-10-15T05:09:16.431Z,35.2
2022-10-15T05:11:20.315Z,34.1
2022-10-15T05:13:24.218Z,37
2022-10-15T05:15:28.106Z,34.8
2022-10-15T05:17:32.004Z,40.2
2022-10-15T05:19:35.942Z,39
2022-10-15T05:21:42.670Z,42.7
2022-10-15T05:23:46.543Z,37
2022-10-15T05:25:53.299Z,40.1
2022-10-15T05:27:54.350Z,38.5
2022-10-15T05:29:58.276Z,40.5
2022-10-15T05:32:02.193Z,39.5
2022-10-15T05:34:06.346Z,42.9
2022-10-15T05:36:13.060Z,44.9
2022-10-15T05:38:16.969Z,48.5
2022-10-15T05:40:22.083Z,43.7
2022-10-15T05:42:24.802Z,45.1
2022-10-15T05:44:28.699Z,47.6
2022-10-15T05:46:32.617Z,46.4
2022-10-15T05:50:43.252Z,48.3
2022-10-15T05:52:47.168Z,47.8
2022-10-15T05:54:51.077Z,46.6
2022-10-15T05:57:14.944Z,51.2
2022-10-15T05:59:18.877Z,46
2022-10-15T06:01:22.783Z,49.2
2022-10-15T06:03:29.506Z,51.2
2022-10-15T06:05:33.450Z,51.9
2022-10-15T06:07:37.370Z,50.6
2022-10-15T06:09:41.284Z,52.2
2022-10-15T06:11:45.225Z,50.8
2022-10-15T06:13:49.149Z,50.7
2022-10-15T06:15:53.169Z,52.8
2022-10-15T06:22:07.747Z,51.4
2022-10-15T06:26:15.597Z,52.4
2022-10-15T06:32:30.290Z,54.5
2022-10-15T06:34:34.190Z,52.9
2022-10-15T06:36:38.127Z,52.4
2022-10-15T06:38:42.179Z,53.1
2022-10-15T06:40:46.079Z,46.8
2022-10-15T06:42:49.992Z,50.5
2022-10-15T06:44:53.920Z,50.6
2022-10-15T06:47:00.771Z,51.4
2022-10-15T06:49:04.715Z,49.5
2022-10-15T06:51:08.624Z,46.5
2022-10-15T06:54:15.925Z,48.3
2022-10-15T06:56:19.838Z,42.9
2022-10-15T07:02:34.435Z,40
2022-10-15T07:08:46.203Z,41.5
2022-10-15T07:12:54.048Z,38.7
2022-10-15T07:17:04.722Z,37
2022-10-15T07:19:08.658Z,37.6
2022-10-15T07:21:12.600Z,34.3
2022-10-15T07:23:16.525Z,37.3
2022-10-15T07:25:20.446Z,41.9
2022-10-15T07:27:24.352Z,32.2
2022-10-15T07:33:38.968Z,33.4
2022-10-15T07:37:46.836Z,32.6
2022-10-15T07:39:50.743Z,30.7
2022-10-15T07:41:54.683Z,31.7
2022-10-15T07:44:01.562Z,32.3
2022-10-15T07:46:05.349Z,30.4
2022-10-15T07:48:09.262Z,30.9
2022-10-15T07:49:12.664Z,33.2
2022-10-15T07:53:22.617Z,25.8
2022-10-15T07:55:24.423Z,27.8
2022-10-15T07:57:32.652Z,27.5
2022-10-15T07:59:36.571Z,25.6
2022-10-15T08:01:41.254Z,26.1
2022-10-15T08:03:45.168Z,26.4
2022-10-15T08:05:49.107Z,23.7
2022-10-15T08:07:53.019Z,24.8
2022-10-15T08:09:56.940Z,24.7
2022-10-15T08:14:07.640Z,24.2
2022-10-15T08:16:11.561Z,22.3
2022-10-15T08:20:19.398Z,20.9
2022-10-15T08:22:23.563Z,21.6
2022-10-15T08:24:27.263Z,19.1
2022-10-15T08:26:34.008Z,20.7
2022-10-15T08:28:37.997Z,21.2
2022-10-15T08:30:41.883Z,19.7
2022-10-15T08:36:53.690Z,21
2022-10-15T08:38:57.597Z,20.7
2022-10-15T08:41:04.386Z,22.3
2022-10-15T08:43:08.294Z,20
2022-10-15T08:45:12.230Z,18.8
2022-10-15T08:48:19.528Z,22.2
2022-10-15T08:50:23.469Z,23.2
2022-10-15T08:52:27.408Z,17.1
2022-10-15T08:56:38.073Z,25.1
2022-10-15T08:58:42.027Z,20.3
2022-10-15T09:00:45.956Z,22.6
2022-10-15T09:02:49.966Z,25.6
2022-10-15T09:06:57.785Z,23.7
2022-10-15T09:09:04.513Z,26.5
2022-10-15T09:11:08.462Z,23.1
2022-10-15T09:13:15.473Z,28
2022-10-15T09:15:16.338Z,21.3
2022-10-15T09:17:20.272Z,20.8
2022-10-15T09:19:24.195Z,23.6
2022-10-15T09:21:28.160Z,19.7
2022-10-15T09:25:38.860Z,19.6
2022-10-15T09:29:46.734Z,18
2022-10-15T09:31:50.778Z,15
2022-10-15T09:33:54.654Z,16.9
2022-10-15T09:35:58.593Z,16.6
2022-10-15T09:38:06.057Z,17
2022-10-15T09:40:09.287Z,15.6
2022-10-15T09:42:13.211Z,17.7
2022-10-15T09:46:35.323Z,16.3
2022-10-15T09:48:39.091Z,13.8
2022-10-15T09:50:45.837Z,13.4
2022-10-15T09:52:49.782Z,12.4
2022-10-15T09:54:53.730Z,12.2
2022-10-15T09:56:57.673Z,12.5
2022-10-15T10:05:16.267Z,11.2
2022-10-15T10:07:20.229Z,8.6
2022-10-15T10:09:24.144Z,8.3
2022-10-15T10:11:28.102Z,9.1
2022-10-15T10:13:32.080Z,9
2022-10-15T10:15:35.996Z,9.8
2022-10-15T10:17:40.034Z,8.5
2022-10-15T10:19:46.718Z,9
2022-10-15T10:21:50.686Z,8.1
2022-10-15T10:30:06.450Z,7.9
2022-10-15T10:32:10.420Z,8.8
2022-10-15T10:34:17.153Z,8.7
2022-10-15T10:39:28.420Z,8.6
2022-10-15T10:43:39.185Z,7.8
2022-10-15T10:45:40.294Z,9.5
2022-10-15T10:47:47.024Z,7.9
2022-10-15T10:51:54.907Z,7.7
2022-10-15T10:53:58.826Z,8.1
2022-10-15T10:56:02.761Z,8.6
2022-10-15T10:58:06.711Z,9.5
2022-10-15T11:00:10.667Z,8.7
2022-10-15T11:02:17.408Z,7.7
2022-10-15T11:04:21.328Z,7.5
2022-10-15T11:08:29.235Z,8.9
2022-10-15T11:10:33.144Z,8.3
2022-10-15T11:12:37.093Z,8.7
2022-10-15T11:14:41.023Z,8.2
2022-10-15T11:18:51.721Z,8.5
2022-10-15T11:20:59.785Z,9
2022-10-15T11:22:59.613Z,7.6
2022-10-15T11:25:07.036Z,10.8
2022-10-15T11:29:11.551Z,7
2022-10-15T11:31:18.300Z,6.6
2022-10-15T11:33:22.109Z,7.3
2022-10-15T11:35:48.276Z,7
2022-10-15T11:36:29.465Z,7
2022-10-15T11:38:33.418Z,6.9
2022-10-15T11:40:37.370Z,6.7
2022-10-15T11:42:41.285Z,6.1
2022-10-15T11:44:48.198Z,6.9
2022-10-15T11:46:51.981Z,6.5
2022-10-15T11:48:55.924Z,6.3
2022-10-15T11:50:59.859Z,6.4
2022-10-15T11:55:07.754Z,5.8
2022-10-15T11:57:11.651Z,6.9
2022-10-15T11:59:18.408Z,6.1
2022-10-15T12:01:22.344Z,6
2022-10-15T12:03:26.294Z,6.9
2022-10-15T12:05:30.257Z,5.7
2022-10-15T12:07:34.187Z,6.2
2022-10-15T12:09:38.110Z,5.1
2022-10-15T12:11:42.076Z,6.3
2022-10-15T12:13:48.822Z,5.9
2022-10-15T12:15:52.755Z,5.7
2022-10-15T12:17:56.685Z,6.8
2022-10-15T12:20:00.654Z,5.8
2022-10-15T12:22:04.591Z,5.4
2022-10-15T12:24:08.525Z,5.7
2022-10-15T12:26:12.493Z,6.6
2022-10-15T12:28:19.273Z,6.3
2022-10-15T12:30:23.158Z,6.5
2022-10-15T12:32:27.075Z,6.3
2022-10-15T12:33:30.459Z,6.4
2022-10-15T12:35:34.417Z,5.9
2022-10-15T12:37:38.350Z,6.3
2022-10-15T12:39:52.480Z,4.6
2022-10-15T12:41:49.043Z,6
2022-10-15T12:43:52.982Z,5.5
2022-10-15T12:45:56.937Z,4.9
2022-10-15T12:48:00.863Z,5.3
2022-10-15T12:50:04.825Z,4.3
2022-10-15T12:56:19.423Z,5.5
2022-10-15T12:58:23.381Z,5.1
2022-10-15T13:00:27.337Z,5.9
2022-10-15T13:02:31.293Z,5.9
2022-10-15T13:10:49.865Z,5.3
2022-10-15T13:12:53.808Z,5.6
2022-10-15T13:14:57.741Z,6
2022-10-15T13:17:01.686Z,6.2
2022-10-15T13:21:11.409Z,6
2022-10-15T13:23:29.375Z,5.3
2022-10-15T13:25:20.276Z,6.4
2022-10-15T13:27:24.208Z,6.1
2022-10-15T13:29:28.136Z,6.6
2022-10-15T13:31:57.818Z,5.8
2022-10-15T13:34:01.770Z,6.3
2022-10-15T13:36:05.690Z,6.1
2022-10-15T13:38:12.457Z,6
2022-10-15T13:40:16.417Z,7.5
2022-10-15T13:42:20.336Z,7.7
2022-10-15T13:44:24.278Z,6.2
2022-10-15T13:46:28.249Z,5.3
2022-10-15T13:48:32.288Z,6.5
2022-10-15T13:50:36.146Z,6.1
2022-10-15T13:52:42.915Z,6.3
2022-10-15T13:54:48.358Z,5.5
2022-10-15T13:56:52.243Z,4.4
2022-10-15T13:58:56.214Z,6.3
2022-10-15T14:01:00.249Z,5.4
2022-10-15T14:03:04.089Z,5.2
2022-10-15T14:05:08.037Z,5.7
2022-10-15T14:07:14.786Z,5.3
2022-10-15T14:09:18.752Z,5.1
2022-10-15T14:11:22.671Z,5.7
2022-10-15T14:13:26.632Z,5.1
2022-10-15T14:15:30.564Z,5.8
2022-10-15T14:17:34.517Z,4.7
2022-10-15T14:19:38.454Z,5.7
2022-10-15T14:21:45.231Z,5.1
2022-10-15T14:23:49.160Z,5.3
2022-10-15T14:25:53.111Z,5.5
2022-10-15T14:26:56.489Z,5.2
2022-10-15T14:29:00.579Z,5.9
2022-10-15T14:31:04.389Z,6.1
2022-10-15T14:33:08.313Z,5
2022-10-15T14:35:15.099Z,5.6
2022-10-15T14:37:19.041Z,5.4
2022-10-15T14:39:22.975Z,6.6
2022-10-15T14:41:26.963Z,6.3
2022-10-15T14:45:34.796Z,7
2022-10-15T14:49:45.517Z,6.2
2022-10-15T14:51:49.461Z,6.9
2022-10-15T14:53:53.401Z,7
2022-10-15T14:55:57.353Z,7
2022-10-15T14:58:01.299Z,7.1
2022-10-15T15:00:05.255Z,6.5
2022-10-15T15:02:09.173Z,7.5
2022-10-15T15:04:15.949Z,6.3
2022-10-15T15:06:20.552Z,7
2022-10-15T15:08:24.486Z,6.9
2022-10-15T15:10:28.422Z,7
2022-10-15T15:12:32.652Z,6
2022-10-15T15:14:36.300Z,6.8
2022-10-15T15:16:40.246Z,6.5
2022-10-15T15:18:47.020Z,5.5
2022-10-15T15:20:50.955Z,5.9
2022-10-15T15:22:54.895Z,5.6
2022-10-15T15:23:58.268Z,5.5
2022-10-15T15:26:02.219Z,4
2022-10-15T15:28:06.164Z,5
2022-10-15T15:30:10.084Z,4.4
2022-10-15T15:32:17.759Z,4.6
2022-10-15T15:34:21.734Z,3.9
2022-10-15T15:36:25.640Z,3.3
2022-10-15T15:38:29.694Z,3.8
2022-10-15T15:40:33.610Z,4.4
2022-10-15T15:46:48.267Z,3.6
2022-10-15T15:48:52.253Z,3.5
2022-10-15T15:50:56.166Z,3.6
2022-10-15T15:53:00.119Z,3.8
2022-10-15T15:55:04.037Z,3.8
2022-10-15T15:57:07.993Z,4
2022-10-15T15:59:11.922Z,3.9
2022-10-15T16:01:18.757Z,4.5
2022-10-15T16:03:22.641Z,3.5
2022-10-15T16:05:26.573Z,4.3
2022-10-15T16:07:31.030Z,3.5
2022-10-15T16:09:34.454Z,4.4
2022-10-15T16:11:38.405Z,3.3
2022-10-15T16:13:42.340Z,2.6
2022-10-15T16:17:53.033Z,4.3
2022-10-15T16:19:56.970Z,3.1
2022-10-15T16:21:00.362Z,3.2
2022-10-15T16:23:04.332Z,3.4
2022-10-15T16:25:08.746Z,2.6
2022-10-15T16:27:12.688Z,2.8
2022-10-15T16:29:19.448Z,4
2022-10-15T16:31:27.803Z,3.1
2022-10-15T16:33:27.293Z,2.8
2022-10-15T16:35:31.248Z,3.7
2022-10-15T16:37:35.186Z,2
2022-10-15T16:39:39.126Z,2.6
2022-10-15T16:41:43.033Z,3.1
2022-10-15T16:45:53.763Z,4.6
2022-10-15T16:50:01.751Z,11.4
2022-10-15T16:56:13.395Z,6.4
2022-10-15T16:58:20.146Z,6
2022-10-15T17:00:24.080Z,4.2
2022-10-15T17:02:28.273Z,3.8
2022-10-15T17:04:31.933Z,4.5
2022-10-15T17:06:35.864Z,4
2022-10-15T17:08:39.820Z,3.9
2022-10-15T17:10:43.731Z,4.3
2022-10-15T17:14:54.394Z,3.4
2022-10-15T17:16:58.321Z,8.1
2022-10-15T17:19:30.613Z,4.5
2022-10-15T17:21:31.911Z,34.6
2022-10-15T17:23:35.821Z,12.1
2022-10-15T17:25:42.588Z,6.3
2022-10-15T17:27:46.503Z,6.5
2022-10-15T17:29:50.429Z,4.9
2022-10-15T17:31:54.345Z,7.2
2022-10-15T17:33:58.282Z,5
2022-10-15T17:36:02.179Z,7.2
2022-10-15T17:38:06.133Z,6
2022-10-15T17:40:12.951Z,7.7
2022-10-15T17:42:16.760Z,6.6
2022-10-15T17:44:20.686Z,5.3
2022-10-15T17:46:24.625Z,6.3
2022-10-15T17:48:28.536Z,5.9
2022-10-15T17:50:32.464Z,7.1
2022-10-15T17:52:36.396Z,6.4
2022-10-15T17:54:43.130Z,6.4
2022-10-15T17:56:47.064Z,5.7
2022-10-15T17:58:50.963Z,6.1
2022-10-15T18:02:58.816Z,4.5
2022-10-15T18:07:06.670Z,5.2
2022-10-15T18:13:21.232Z,8.6
2022-10-15T18:14:24.612Z,5.5
2022-10-15T18:16:28.546Z,7
2022-10-15T18:18:32.485Z,3.5
2022-10-15T18:20:36.406Z,4
2022-10-15T18:22:43.134Z,4.4
2022-10-15T18:24:47.055Z,3.5
2022-10-15T18:26:50.963Z,3.7
2022-10-15T18:28:55.004Z,3.2
2022-10-15T18:30:58.801Z,3.2
2022-10-15T18:33:02.756Z,3.5
2022-10-15T18:35:06.671Z,4.6
2022-10-15T18:37:13.400Z,4.6
2022-10-15T18:39:17.320Z,4.5
2022-10-15T18:41:21.276Z,4.7
2022-10-15T18:43:25.165Z,5
2022-10-15T18:45:29.076Z,6.8
2022-10-15T18:47:33.006Z,5.3
2022-10-15T18:49:36.919Z,4.5
2022-10-15T18:51:43.733Z,6.8
2022-10-15T18:53:47.679Z,3.4
2022-10-15T18:55:51.601Z,4
2022-10-15T18:57:55.547Z,3.6
2022-10-15T18:59:59.447Z,4.2
2022-10-15T19:02:03.405Z,4.9
2022-10-15T19:04:07.296Z,4.5
2022-10-15T19:06:14.022Z,4.6
2022-10-15T19:08:20.814Z,4.8
2022-10-15T19:11:25.233Z,4.5
2022-10-15T19:13:29.171Z,4.2
2022-10-15T19:17:37.012Z,5
2022-10-15T19:21:47.670Z,4.3
2022-10-15T19:23:51.585Z,4
2022-10-15T19:25:55.500Z,4
2022-10-15T19:27:59.410Z,11.5
2022-10-15T19:30:03.326Z,5
2022-10-15T19:32:07.252Z,4.5
2022-10-15T19:36:17.894Z,4.8
2022-10-15T19:42:29.663Z,4
2022-10-15T19:46:37.525Z,4.4
2022-10-15T19:50:48.187Z,5.9
2022-10-15T19:52:53.601Z,8.5
2022-10-15T19:54:57.484Z,5.2
2022-10-15T19:57:01.421Z,6.6
2022-10-15T19:59:05.329Z,5.9
2022-10-15T20:01:09.289Z,5
2022-10-15T20:03:15.969Z,7.3
2022-10-15T20:05:19.895Z,5.6
2022-10-15T20:07:24.165Z,4
2022-10-15T20:08:27.198Z,4.9
2022-10-15T20:10:31.126Z,4.7
2022-10-15T20:12:35.117Z,5.1
2022-10-15T20:14:39.063Z,11.1
2022-10-15T20:16:45.786Z,3.7
2022-10-15T20:22:57.551Z,2.2
2022-10-15T20:25:01.466Z,4.4
2022-10-15T20:27:05.384Z,4
2022-10-15T20:29:09.296Z,3.7
2022-10-15T20:31:16.052Z,3.4
2022-10-15T20:33:19.970Z,3.1
2022-10-15T20:35:23.916Z,3.1
2022-10-15T20:37:27.858Z,2.7
2022-10-15T20:39:31.753Z,2.6
2022-10-15T20:41:35.671Z,3.2
2022-10-15T20:43:39.603Z,4.6
2022-10-15T20:45:46.341Z,3.3
2022-10-15T20:47:50.273Z,4
2022-10-15T20:49:54.194Z,5.3
2022-10-15T20:51:58.141Z,5.5
2022-10-15T20:54:02.039Z,4.8
2022-10-15T20:56:05.966Z,4
2022-10-15T20:58:10.089Z,2.7
2022-10-15T21:00:16.625Z,6.2
2022-10-15T21:06:52.115Z,5.7
2022-10-15T21:08:56.056Z,3.4
2022-10-15T21:10:59.976Z,2.7
2022-10-15T21:13:06.726Z,4.2
2022-10-15T21:15:10.676Z,3.7
2022-10-15T21:19:18.514Z,3.9
2022-10-15T21:23:26.527Z,3.2
2022-10-15T21:25:30.356Z,7.5
2022-10-15T21:29:40.979Z,4.1
2022-10-15T21:31:44.911Z,2.2
2022-10-15T21:33:48.849Z,3
2022-10-15T21:35:52.772Z,2.8
2022-10-15T21:37:56.717Z,4.6
2022-10-15T21:40:00.682Z,5.3
2022-10-15T21:44:11.312Z,4.7
2022-10-15T21:46:15.258Z,6.1
2022-10-15T21:52:27.036Z,6.2
2022-10-15T21:54:30.974Z,61.2
2022-10-15T21:56:37.729Z,4.8
2022-10-15T22:00:45.563Z,5.7
2022-10-15T22:01:49.007Z,10.7
2022-10-15T22:03:52.888Z,7.8
2022-10-15T22:05:56.810Z,11.8
2022-10-15T22:08:00.760Z,4.5
2022-10-15T22:10:07.472Z,3.8
2022-10-15T22:12:11.414Z,4.1
2022-10-15T22:14:15.321Z,6.1
2022-10-15T22:16:19.263Z,3.9
2022-10-15T22:18:23.179Z,4.6
2022-10-15T22:20:27.138Z,4.2
2022-10-15T22:22:31.057Z,7.7
2022-10-15T22:24:37.783Z,5.2
2022-10-15T22:26:41.726Z,2.9
2022-10-15T22:28:45.707Z,5.7
2022-10-15T22:30:49.593Z,6.6
2022-10-15T22:32:53.516Z,5.8
2022-10-15T22:34:57.413Z,2.3
2022-10-15T22:37:01.347Z,2.9
2022-10-15T22:39:08.094Z,4.9
2022-10-15T22:41:12.031Z,2.8
2022-10-15T22:43:15.937Z,5.5
2022-10-15T22:45:19.894Z,2.1
2022-10-15T22:49:27.748Z,10.7
2022-10-15T22:51:31.660Z,4.1
2022-10-15T22:53:38.418Z,9.7
2022-10-15T22:57:46.265Z,7.2
2022-10-15T22:58:49.650Z,3.9
2022-10-15T23:00:53.610Z,3.9
2022-10-15T23:02:57.503Z,2.6
2022-10-15T23:05:01.445Z,2.9
2022-10-15T23:07:08.593Z,4.2
2022-10-15T23:09:12.505Z,3.9
2022-10-15T23:11:16.456Z,3.5
2022-10-15T23:13:20.380Z,2.4
2022-10-15T23:21:38.918Z,4.4
2022-10-15T23:23:42.863Z,6.9
2022-10-15T23:25:46.767Z,2.6
2022-10-15T23:27:50.701Z,3.8
2022-10-15T23:30:07.340Z,5
2022-10-15T23:31:58.597Z,2.9
2022-10-15T23:34:02.502Z,6.2
2022-10-15T23:36:09.237Z,3.3
2022-10-15T23:38:13.166Z,3
2022-10-15T23:40:17.094Z,7.4
2022-10-15T23:42:21.025Z,6.2
2022-10-15T23:44:24.974Z,13.6
2022-10-15T23:46:28.861Z,2.5
2022-10-15T23:48:32.802Z,6.2
2022-10-15T23:50:39.556Z,2.6
2022-10-15T23:52:43.466Z,2.6
2022-10-15T23:54:47.372Z,2.6
2022-10-15T23:55:50.743Z,3
2022-10-15T23:57:54.678Z,3.2
2022-10-15T23:59:58.603Z,2.2
